Time;durP1;ratioP1;P1;durP2;ratioP2;P2;SDS_P1;SDS_P2;PMS_P1;PMS_P2;Temp;Humidity;BMP_temperature;BMP_pressure;BME280_temperature;BME280_humidity;BME280_pressure;Samples;Min_cycle;Max_cycle;Signal;HPM_P1;HPM_P2
2022/08/06 00:02:56;;;;;;;19.30;15.30;;;;;;;21.50;59.40;98387.95;433408;1269;108830;-41
2022/08/06 00:13:04;;;;;;;22.60;17.50;;;;;;;21.36;59.82;98383.48;432891;1269;98168;-40
2022/08/06 00:23:20;;;;;;;28.40;17.90;;;;;;;21.16;60.50;98393.68;433325;1271;110954;-41
2022/08/06 00:33:30;;;;;;;24.50;15.80;;;;;;;20.96;61.06;98402.99;432987;1270;108953;-40
2022/08/06 00:43:58;;;;;;;19.80;15.00;;;;;;;20.84;61.39;98411.86;432396;1271;97884;-41
2022/08/06 00:54:09;;;;;;;20.60;17.10;;;;;;;20.74;61.97;98428.23;432703;1271;110059;-40
2022/08/06 01:16:06;;;;;;;17.70;15.20;;;;;;;20.91;62.99;98433.12;432341;1271;97503;-40
2022/08/06 01:26:30;;;;;;;16.20;13.80;;;;;;;21.02;63.44;98450.45;433336;1270;108784;-40
2022/08/06 01:47:30;;;;;;;20.10;11.70;;;;;;;21.11;63.85;98453.33;432252;1273;97944;-41
2022/08/06 01:58:59;;;;;;;13.30;11.80;;;;;;;21.05;63.80;98454.40;430682;1276;107464;-39
2022/08/06 02:09:16;;;;;;;15.60;11.90;;;;;;;20.92;64.10;98459.46;431980;1271;98133;-41
2022/08/06 02:19:32;;;;;;;16.50;11.40;;;;;;;20.81;64.42;98476.08;432963;1270;111095;-41
2022/08/06 02:30:01;;;;;;;16.90;9.60;;;;;;;20.84;65.01;98519.91;432405;1271;108864;-41
2022/08/06 02:40:14;;;;;;;10.30;8.80;;;;;;;20.85;65.32;98536.96;432429;1271;97525;-41
2022/08/06 02:51:45;;;;;;;12.40;9.20;;;;;;;20.88;65.76;98551.54;432040;1272;110984;-41
2022/08/06 03:02:15;;;;;;;9.90;7.90;;;;;;;20.83;66.21;98568.82;432327;1270;96755;-40
2022/08/06 03:12:23;;;;;;;8.50;7.70;;;;;;;20.88;66.51;98583.46;433562;1269;111115;-40
2022/08/06 03:22:40;;;;;;;9.20;8.30;;;;;;;20.88;66.97;98594.31;433512;1270;107675;-40
2022/08/06 03:32:50;;;;;;;11.50;8.80;;;;;;;20.89;67.41;98607.89;432818;1271;97465;-40
2022/08/06 03:42:58;;;;;;;9.60;8.30;;;;;;;20.91;68.15;98617.55;432707;1271;109170;-39
2022/08/06 03:53:08;;;;;;;10.80;8.70;;;;;;;20.92;68.93;98622.41;433726;1267;97893;-40
2022/08/06 04:03:16;;;;;;;10.20;8.60;;;;;;;20.99;69.60;98639.84;433656;1267;111103;-40
2022/08/06 04:13:26;;;;;;;12.10;8.00;;;;;;;21.07;69.69;98657.89;433506;1267;107878;-41
2022/08/06 04:23:55;;;;;;;13.20;9.10;;;;;;;21.02;70.15;98682.33;433258;1267;97293;-43
2022/08/06 04:34:04;;;;;;;12.20;8.10;;;;;;;20.98;70.83;98698.46;433719;1267;108414;-41
2022/08/06 04:44:17;;;;;;;10.40;7.40;;;;;;;21.06;71.25;98719.46;433645;1268;97581;-40
2022/08/06 04:55:13;;;;;;;13.20;8.40;;;;;;;21.12;71.43;98721.63;434000;1267;111401;-42
2022/08/06 05:30:11;;;;;;;11.70;6.90;;;;;;;20.75;72.87;98761.63;424993;1270;110087;-41
2022/08/06 05:40:19;;;;;;;16.30;6.30;;;;;;;20.74;73.07;98769.11;432584;1267;111288;-42
2022/08/06 06:00:53;;;;;;;15.30;7.20;;;;;;;20.57;73.82;98825.16;433962;1267;96573;-40
2022/08/06 06:11:01;;;;;;;7.30;6.50;;;;;;;20.50;73.76;98839.90;433612;1267;109013;-41
2022/08/06 06:31:38;;;;;;;25.80;8.20;;;;;;;20.29;74.29;98892.45;434113;1267;111045;-40
2022/08/06 07:05:09;;;;;;;7.70;6.50;;;;;;;19.99;75.08;98935.26;432582;1272;109070;-41
2022/08/06 07:26:46;;;;;;;5.80;3.00;;;;;;;19.43;76.91;98973.36;431538;1270;111471;-42
2022/08/06 07:49:04;;;;;;;7.20;2.70;;;;;;;18.97;77.97;99010.84;434296;1267;97484;-42
2022/08/06 07:59:14;;;;;;;3.60;1.50;;;;;;;18.88;78.29;99021.05;433938;1267;108603;-42
2022/08/06 08:09:23;;;;;;;2.10;1.40;;;;;;;18.86;78.50;99028.27;433790;1267;97683;-42
2022/08/06 08:20:15;;;;;;;0.90;0.80;;;;;;;18.93;78.75;99040.75;432775;1270;112255;-42
2022/08/06 08:30:51;;;;;;;1.70;1.10;;;;;;;18.69;78.68;99059.89;432197;1268;108821;-42
2022/08/06 08:41:00;;;;;;;2.00;0.80;;;;;;;18.36;79.20;99091.36;433814;1267;96654;-41
2022/08/06 08:51:06;;;;;;;1.00;0.90;;;;;;;18.01;79.87;99103.89;434094;1268;109542;-42
2022/08/06 09:01:14;;;;;;;2.20;1.20;;;;;;;17.85;79.85;99115.16;433870;1267;96680;-42
2022/08/06 09:11:41;;;;;;;1.50;1.40;;;;;;;17.84;79.91;99108.74;433935;1267;109678;-42
2022/08/06 09:34:20;;;;;;;0.70;0.70;;;;;;;17.63;79.92;99145.99;432354;1267;98260;-41
2022/08/06 10:07:29;;;;;;;3.20;2.30;;;;;;;17.23;80.09;99182.22;433109;1267;111150;-40
2022/08/06 10:29:54;;;;;;;6.90;3.50;;;;;;;17.01;80.43;99191.45;433594;1267;97585;-41
2022/08/06 10:40:04;;;;;;;5.50;3.60;;;;;;;17.01;80.34;99204.48;433883;1267;108376;-41
2022/08/06 10:50:16;;;;;;;5.50;3.30;;;;;;;17.09;80.56;99216.10;434015;1266;97887;-41
2022/08/06 11:10:59;;;;;;;4.80;3.50;;;;;;;17.45;80.48;99226.56;433024;1267;108964;-41
2022/08/06 11:21:30;;;;;;;4.70;3.90;;;;;;;17.64;80.52;99238.32;433170;1267;98456;-42
2022/08/06 11:32:56;;;;;;;4.40;3.80;;;;;;;17.87;80.15;99243.46;432419;1270;109096;-40
2022/08/06 11:43:02;;;;;;;4.30;3.00;;;;;;;18.04;79.89;99247.27;431865;1267;97685;-40
2022/08/06 11:53:08;;;;;;;8.40;4.00;;;;;;;18.13;79.67;99253.66;434162;1268;109854;-40
2022/08/06 12:15:01;;;;;;;6.00;3.10;;;;;;;17.92;79.28;99257.55;433641;1267;97491;-40
2022/08/06 12:25:13;;;;;;;7.70;3.00;;;;;;;18.20;79.27;99255.40;433620;1267;109018;-42
2022/08/06 12:35:18;;;;;;;4.00;3.30;;;;;;;18.73;78.87;99266.80;434320;1267;97881;-41
2022/08/06 12:45:31;;;;;;;2.90;2.70;;;;;;;19.07;78.22;99267.82;434104;1267;111046;-41
2022/08/06 12:55:58;;;;;;;5.60;3.40;;;;;;;19.73;77.86;99264.10;433686;1267;108443;-40
2022/08/06 13:17:42;;;;;;;3.20;2.30;;;;;;;20.21;75.37;99266.80;433727;1267;110422;-41
2022/08/06 14:03:12;;;;;;;6.50;2.10;;;;;;;20.31;72.14;99278.71;431581;1274;111183;-41
2022/08/06 14:13:21;;;;;;;4.90;1.40;;;;;;;20.38;70.85;99278.11;433529;1268;96651;-40
2022/08/06 14:45:31;;;;;;;1.70;1.60;;;;;;;20.48;67.66;99273.00;433486;1267;108786;-40
2022/08/06 14:55:44;;;;;;;3.20;1.90;;;;;;;20.40;67.18;99274.92;433943;1268;97517;-40
2022/08/06 15:06:35;;;;;;;3.50;2.10;;;;;;;20.19;67.19;99278.25;431969;1273;111469;-39
2022/08/06 15:28:45;;;;;;;;;;;;;;;20.34;67.61;99269.89;433256;1268;97519;-41
2022/08/06 15:38:56;;;;;;;5.10;2.80;;;;;;;20.32;67.82;99268.73;433628;1267;110418;-41
2022/08/06 15:49:05;;;;;;;5.00;2.50;;;;;;;20.02;67.60;99266.41;433710;1266;107933;-40
2022/08/06 16:00:38;;;;;;;8.10;2.10;;;;;;;19.89;67.90;99256.33;432976;1270;109214;-40
2022/08/06 16:22:49;;;;;;;5.50;3.50;;;;;;;19.87;68.14;99251.98;433108;1268;111184;-41
2022/08/06 16:32:56;;;;;;;6.20;2.60;;;;;;;19.70;68.30;99251.90;434202;1268;98170;-41
2022/08/06 16:54:12;;;;;;;5.40;4.00;;;;;;;19.63;68.67;99264.35;432908;1268;108943;-41
2022/08/06 17:04:22;;;;;;;8.60;5.60;;;;;;;19.72;68.81;99262.41;434192;1268;98583;-41
2022/08/06 17:14:35;;;;;;;7.90;4.00;;;;;;;19.71;68.63;99260.38;434147;1268;97936;-41
2022/08/06 17:24:42;;;;;;;7.00;3.50;;;;;;;19.61;68.73;99263.56;432865;1268;1318820;-41
2022/08/06 17:34:51;;;;;;;14.40;6.40;;;;;;;19.53;68.83;99264.44;433249;1268;108765;-40
2022/08/06 17:44:58;;;;;;;12.60;5.30;;;;;;;19.56;69.36;99262.29;433957;1268;98573;-40
2022/08/06 17:55:07;;;;;;;4.80;3.10;;;;;;;19.56;69.96;99268.94;433373;1268;111909;-43
2022/08/06 18:05:15;;;;;;;7.80;4.50;;;;;;;19.35;70.33;99278.35;433231;1268;108730;-42
2022/08/06 18:15:43;;;;;;;7.30;4.40;;;;;;;19.07;70.72;99284.38;433270;1268;98035;-40
2022/08/06 18:25:53;;;;;;;14.60;5.90;;;;;;;18.82;71.07;99287.81;433968;1267;111390;-41
2022/08/06 18:36:05;;;;;;;11.50;6.50;;;;;;;18.45;71.21;99291.80;433727;1266;108892;-41
2022/08/06 18:46:12;;;;;;;8.60;6.10;;;;;;;18.24;71.70;99297.27;433823;1267;97863;-39
2022/08/06 18:56:19;;;;;;;15.00;6.10;;;;;;;18.13;72.13;99303.44;434045;1267;108777;-40
2022/08/06 19:06:26;;;;;;;9.80;7.40;;;;;;;17.89;72.17;99312.80;433467;1267;97894;-41
2022/08/06 19:16:37;;;;;;;13.20;9.10;;;;;;;17.42;72.32;99323.10;433708;1268;111372;-41
2022/08/06 19:26:55;;;;;;;9.50;8.00;;;;;;;17.04;72.54;99334.67;433190;1267;108659;-41
2022/08/06 19:37:02;;;;;;;11.10;6.50;;;;;;;16.79;72.81;99337.77;433943;1268;96659;-42
2022/08/06 19:47:16;;;;;;;13.40;6.70;;;;;;;16.50;73.32;99340.43;433305;1267;107913;-41
2022/08/06 19:57:30;;;;;;;10.20;5.10;;;;;;;16.34;73.84;99347.36;433993;1266;97370;-41
2022/08/06 20:28:11;;;;;;;11.30;7.30;;;;;;;16.09;74.54;99349.23;433744;1268;97486;-41
2022/08/06 20:38:38;;;;;;;8.20;6.00;;;;;;;16.07;74.98;99351.12;433769;1267;108808;-40
2022/08/06 20:48:49;;;;;;;9.90;7.50;;;;;;;15.92;75.12;99349.49;433713;1268;97988;-40
2022/08/06 20:58:57;;;;;;;20.60;12.40;;;;;;;15.75;75.13;99351.50;433763;1268;111188;-42
2022/08/06 21:09:04;;;;;;;17.60;11.20;;;;;;;15.63;75.28;99357.06;433781;1267;108145;-40
2022/08/06 21:19:14;;;;;;;13.30;9.90;;;;;;;15.50;75.41;99367.90;434085;1267;97908;-41
2022/08/06 21:39:53;;;;;;;17.20;10.10;;;;;;;15.02;75.50;99381.40;434008;1268;98012;-40
2022/08/06 21:50:05;;;;;;;15.40;10.30;;;;;;;15.00;75.94;99378.49;433300;1267;112012;-40
2022/08/06 22:00:42;;;;;;;25.70;12.90;;;;;;;14.75;75.76;99378.52;433601;1267;108088;-41
2022/08/06 22:10:49;;;;;;;15.20;9.70;;;;;;;14.54;76.09;99375.62;434073;1267;97592;-40
2022/08/06 22:21:16;;;;;;;15.60;9.60;;;;;;;14.59;76.47;99388.55;433611;1267;108852;-40
2022/08/06 22:31:23;;;;;;;18.10;9.80;;;;;;;14.62;76.43;99390.59;433739;1267;98564;-40
2022/08/06 22:41:27;;;;;;;17.80;10.90;;;;;;;14.47;76.66;99386.93;433803;1268;109577;-40
2022/08/06 22:51:53;;;;;;;15.30;10.00;;;;;;;14.34;76.46;99384.22;433964;1268;107660;-40
2022/08/06 23:02:01;;;;;;;12.30;10.60;;;;;;;14.14;76.65;99384.65;433415;1267;97693;-40
2022/08/06 23:12:22;;;;;;;20.20;9.80;;;;;;;13.98;76.67;99376.55;433524;1267;110561;-40
2022/08/06 23:22:39;;;;;;;9.20;8.30;;;;;;;13.92;76.76;99371.35;433717;1267;109001;-40
2022/08/06 23:32:46;;;;;;;12.10;8.90;;;;;;;13.81;76.84;99378.88;433536;1267;96603;-41
2022/08/06 23:42:55;;;;;;;9.50;8.20;;;;;;;13.87;77.29;99377.73;433597;1268;108766;-41
2022/08/06 23:53:03;;;;;;;12.60;10.50;;;;;;;13.75;77.02;99375.11;433398;1268;97485;-41
